Time;durP1;ratioP1;P1;durP2;ratioP2;P2;SDS_P1;SDS_P2;PMS_P1;PMS_P2;Temp;Humidity;BMP_temperature;BMP_pressure;BME280_temperature;BME280_humidity;BME280_pressure;Samples;Min_cycle;Max_cycle;Signal;HPM_P1;HPM_P2
2021/12/18 00:02:26;;;;;;;11.52;10.43;;;8.60;99.90;;;;;;5020787;28;20341;-55
2021/12/18 00:04:53;;;;;;;12.13;10.93;;;8.60;99.90;;;;;;5036783;28;20072;-57
2021/12/18 00:07:19;;;;;;;11.30;10.20;;;8.60;99.90;;;;;;5021865;28;20596;-57
2021/12/18 00:09:48;;;;;;;10.85;9.75;;;8.60;99.90;;;;;;5020725;28;20128;-57
2021/12/18 00:12:14;;;;;;;10.90;9.90;;;8.70;99.90;;;;;;5019914;28;20254;-55
2021/12/18 00:14:41;;;;;;;9.60;8.60;;;8.70;99.90;;;;;;5022166;28;20464;-57
2021/12/18 00:17:08;;;;;;;11.25;10.15;;;8.70;99.90;;;;;;5020381;28;20132;-57
2021/12/18 00:19:35;;;;;;;10.77;9.68;;;8.70;99.90;;;;;;5021703;28;20061;-57
2021/12/18 00:22:02;;;;;;;9.80;8.80;;;8.70;99.90;;;;;;5021451;28;20152;-57
2021/12/18 00:24:29;;;;;;;10.02;9.02;;;8.60;99.90;;;;;;5021167;28;20136;-54
2021/12/18 00:26:56;;;;;;;8.52;7.72;;;8.70;99.90;;;;;;5020084;28;20099;-57
2021/12/18 00:29:23;;;;;;;8.77;7.88;;;8.70;99.90;;;;;;5021491;28;20156;-56
2021/12/18 00:31:51;;;;;;;6.72;6.13;;;8.70;99.90;;;;;;5019673;28;20131;-56
2021/12/18 00:34:18;;;;;;;7.60;6.80;;;8.70;99.90;;;;;;5021393;28;20706;-57
2021/12/18 00:36:45;;;;;;;6.63;5.97;;;8.70;99.90;;;;;;5021444;28;20409;-58
2021/12/18 00:39:13;;;;;;;6.57;5.97;;;8.70;99.90;;;;;;5015501;28;20152;-57
2021/12/18 00:44:26;;;;;;;6.05;5.15;;;8.70;99.90;;;;;;5019885;28;20049;-58
2021/12/18 00:46:53;;;;;;;5.88;5.38;;;8.70;99.90;;;;;;5019709;28;20056;-57
2021/12/18 00:49:20;;;;;;;5.85;4.82;;;8.70;99.90;;;;;;5019859;28;20104;-55
2021/12/18 00:51:47;;;;;;;5.47;4.97;;;8.70;99.90;;;;;;5001179;28;20136;-58
2021/12/18 00:54:13;;;;;;;6.35;5.75;;;8.70;99.90;;;;;;5009859;28;20169;-57
2021/12/18 00:56:40;;;;;;;4.95;4.50;;;8.70;99.90;;;;;;5019444;28;20088;-56
2021/12/18 00:59:07;;;;;;;4.85;4.40;;;8.70;99.90;;;;;;5018445;28;20058;-53
2021/12/18 01:01:35;;;;;;;5.53;5.03;;;8.80;99.90;;;;;;5016538;28;20136;-56
2021/12/18 01:04:01;;;;;;;4.55;4.20;;;8.70;99.90;;;;;;5022761;28;20679;-57
2021/12/18 01:06:29;;;;;;;5.97;5.38;;;8.70;99.90;;;;;;5021848;28;20053;-60
2021/12/18 01:08:57;;;;;;;5.18;4.68;;;8.70;99.90;;;;;;5021769;28;20124;-56
2021/12/18 01:11:44;;;;;;;5.35;4.70;;;8.80;99.90;;;;;;5022073;28;20049;-56
2021/12/18 01:14:38;;;;;;;5.03;4.57;;;8.80;99.90;;;;;;5022731;28;20121;-56
2021/12/18 01:22:44;;;;;;;6.22;5.72;;;8.70;99.90;;;;;;5022347;28;20140;-55
2021/12/18 01:25:11;;;;;;;6.55;5.95;;;8.70;99.90;;;;;;5022296;28;20096;-56
2021/12/18 01:27:38;;;;;;;7.22;6.55;;;8.70;99.90;;;;;;5020888;28;20410;-55
2021/12/18 01:30:07;;;;;;;6.50;5.97;;;8.70;99.90;;;;;;5022562;28;20111;-56
2021/12/18 01:32:34;;;;;;;7.53;6.82;;;8.70;99.90;;;;;;5013650;28;20428;-56
2021/12/18 01:35:01;;;;;;;6.75;6.15;;;8.70;99.90;;;;;;5021737;28;20049;-57
2021/12/18 01:37:30;;;;;;;9.07;8.18;;;8.70;99.90;;;;;;5022062;28;20148;-56
2021/12/18 01:39:57;;;;;;;8.80;8.00;;;8.70;99.90;;;;;;5022682;28;20099;-58
2021/12/18 01:45:18;;;;;;;9.60;8.68;;;8.60;99.90;;;;;;5022048;28;20239;-57
2021/12/18 01:53:19;;;;;;;11.15;9.95;;;8.60;99.90;;;;;;5021564;28;20633;-57
2021/12/18 01:55:49;;;;;;;10.25;9.35;;;8.60;99.90;;;;;;5022607;28;20136;-55
2021/12/18 01:58:21;;;;;;;10.82;9.82;;;8.70;99.90;;;;;;5020301;28;20468;-56
2021/12/18 02:00:47;;;;;;;11.80;10.52;;;8.70;99.90;;;;;;5021397;28;20136;-58
2021/12/18 02:03:14;;;;;;;11.00;9.98;;;8.70;99.90;;;;;;5021748;28;20445;-56
2021/12/18 02:05:41;;;;;;;11.95;10.85;;;8.70;99.90;;;;;;5022290;28;20041;-55
2021/12/18 02:08:08;;;;;;;12.70;11.52;;;8.60;99.90;;;;;;5021546;28;20545;-56
2021/12/18 02:10:45;;;;;;;11.88;10.77;;;8.60;99.90;;;;;;5036744;28;20057;-54
2021/12/18 02:21:12;;;;;;;10.07;9.18;;;8.60;99.90;;;;;;5021206;28;20081;-57
2021/12/18 02:23:39;;;;;;;10.45;9.45;;;8.60;99.90;;;;;;5021982;28;20389;-57
2021/12/18 02:26:07;;;;;;;10.02;9.13;;;8.70;99.90;;;;;;5021461;28;20084;-56
2021/12/18 02:28:35;;;;;;;9.27;8.48;;;8.70;99.90;;;;;;5020267;28;20053;-55
2021/12/18 02:31:02;;;;;;;10.13;9.30;;;8.70;99.90;;;;;;5022297;28;20046;-57
2021/12/18 02:33:30;;;;;;;9.77;8.90;;;8.60;99.90;;;;;;5023373;28;20049;-56
2021/12/18 02:36:00;;;;;;;10.80;9.82;;;8.70;99.90;;;;;;5022775;28;20053;-56
2021/12/18 02:38:45;;;;;;;9.93;8.95;;;8.60;99.90;;;;;;5023473;28;20045;-57
2021/12/18 02:44:05;;;;;;;10.40;9.48;;;8.60;99.90;;;;;;5023255;28;20141;-57
2021/12/18 02:46:32;;;;;;;10.52;9.55;;;8.60;99.90;;;;;;5022680;28;20174;-55
2021/12/18 02:49:05;;;;;;;9.35;8.55;;;8.60;99.90;;;;;;5023319;28;20052;-56
2021/12/18 02:51:32;;;;;;;9.25;8.35;;;8.60;99.90;;;;;;5023016;28;20081;-57
2021/12/18 02:53:59;;;;;;;8.32;7.63;;;8.70;99.90;;;;;;5024270;28;20331;-57
2021/12/18 02:56:26;;;;;;;9.68;8.77;;;8.70;99.90;;;;;;5022335;28;20061;-55
2021/12/18 02:58:58;;;;;;;9.57;8.68;;;8.70;99.90;;;;;;5022949;28;20334;-56
2021/12/18 03:01:25;;;;;;;10.85;9.90;;;8.70;99.90;;;;;;5019143;28;20643;-55
2021/12/18 03:03:54;;;;;;;11.02;9.93;;;8.70;99.90;;;;;;5005047;28;20136;-56
2021/12/18 03:06:32;;;;;;;10.93;9.93;;;8.70;99.90;;;;;;5023336;28;20049;-56
2021/12/18 03:25:36;;;;;;;11.63;10.52;;;8.60;99.90;;;;;;5022972;28;20141;-57
2021/12/18 03:28:04;;;;;;;11.02;10.02;;;8.50;99.90;;;;;;5022095;28;20665;-56
2021/12/18 03:30:32;;;;;;;10.73;9.80;;;8.50;99.90;;;;;;5024836;28;20136;-54
2021/12/18 03:32:59;;;;;;;11.30;10.25;;;8.50;99.90;;;;;;5023850;28;20084;-58
2021/12/18 03:35:26;;;;;;;10.32;9.32;;;8.50;99.90;;;;;;5024394;28;20053;-57
2021/12/18 03:37:53;;;;;;;11.07;10.07;;;8.50;99.90;;;;;;5027540;28;20548;-57
2021/12/18 03:40:22;;;;;;;10.77;9.77;;;8.50;99.90;;;;;;5028327;28;20076;-57
2021/12/18 03:42:49;;;;;;;10.73;9.73;;;8.50;99.90;;;;;;5026119;28;20131;-56
2021/12/18 03:45:16;;;;;;;9.93;9.00;;;8.50;99.90;;;;;;5027908;28;20113;-55
2021/12/18 03:47:43;;;;;;;10.02;9.10;;;8.60;99.90;;;;;;5028274;28;20080;-56
2021/12/18 03:50:10;;;;;;;8.88;8.07;;;8.60;99.90;;;;;;5027546;28;20053;-57
2021/12/18 03:52:37;;;;;;;9.65;8.75;;;8.60;99.90;;;;;;5028421;28;20055;-56
2021/12/18 03:55:04;;;;;;;10.13;9.23;;;8.60;99.90;;;;;;5027083;28;20129;-55
2021/12/18 03:57:31;;;;;;;10.00;9.00;;;8.60;99.90;;;;;;5026066;28;20128;-57
2021/12/18 03:59:57;;;;;;;9.40;8.52;;;8.60;99.90;;;;;;5027314;28;20200;-55
2021/12/18 04:02:24;;;;;;;9.38;8.57;;;8.60;99.90;;;;;;5027766;28;20057;-55
2021/12/18 04:04:51;;;;;;;9.68;8.75;;;8.60;99.90;;;;;;5027954;28;20073;-56
2021/12/18 04:07:18;;;;;;;10.32;9.32;;;8.50;99.90;;;;;;5027022;28;20716;-57
2021/12/18 04:09:48;;;;;;;10.70;9.68;;;8.50;99.90;;;;;;5026420;28;20128;-55
2021/12/18 04:12:15;;;;;;;10.18;9.18;;;8.50;99.90;;;;;;5025720;28;20133;-55
2021/12/18 04:14:42;;;;;;;10.07;9.07;;;8.50;99.90;;;;;;5028111;28;20103;-56
2021/12/18 04:17:09;;;;;;;10.40;9.30;;;8.50;99.90;;;;;;5027588;28;20136;-54
2021/12/18 04:19:35;;;;;;;10.75;9.75;;;8.50;99.90;;;;;;5026972;28;20056;-54
2021/12/18 04:22:02;;;;;;;11.10;10.00;;;8.50;99.90;;;;;;5007477;28;20116;-53
2021/12/18 04:24:29;;;;;;;11.32;10.32;;;8.50;99.90;;;;;;5025638;28;20080;-54
2021/12/18 04:26:56;;;;;;;10.38;9.43;;;8.50;99.90;;;;;;5024937;28;20136;-55
2021/12/18 04:29:23;;;;;;;10.60;9.65;;;8.50;99.90;;;;;;5027268;28;20081;-56
2021/12/18 04:31:49;;;;;;;10.20;9.20;;;8.50;99.90;;;;;;5027001;28;20647;-54
2021/12/18 04:34:16;;;;;;;11.35;10.35;;;8.50;99.90;;;;;;5027628;28;20077;-56
2021/12/18 04:36:43;;;;;;;11.63;10.52;;;8.50;99.90;;;;;;5026819;28;20887;-57
2021/12/18 04:39:09;;;;;;;12.30;11.10;;;8.50;99.90;;;;;;5027342;28;20077;-52
2021/12/18 04:41:58;;;;;;;11.60;10.40;;;8.40;99.90;;;;;;5024790;28;20289;-56
2021/12/18 04:44:23;;;;;;;11.70;10.52;;;8.40;99.90;;;;;;5026958;28;20509;-56
2021/12/18 04:46:50;;;;;;;11.43;10.25;;;8.40;99.90;;;;;;5026641;28;20096;-57
2021/12/18 04:49:17;;;;;;;11.82;10.73;;;8.40;99.90;;;;;;5026387;28;20137;-55
2021/12/18 04:51:45;;;;;;;11.27;10.18;;;8.40;99.90;;;;;;5026579;28;20204;-55
2021/12/18 04:54:11;;;;;;;11.48;10.40;;;8.40;99.90;;;;;;5027325;28;20429;-55
2021/12/18 04:56:38;;;;;;;11.70;10.55;;;8.40;99.90;;;;;;5025543;28;20347;-56
2021/12/18 04:59:05;;;;;;;14.07;12.65;;;8.50;99.90;;;;;;5027060;28;20136;-56
2021/12/18 05:01:38;;;;;;;12.05;10.85;;;8.40;99.90;;;;;;5041445;28;20081;-54
2021/12/18 05:04:09;;;;;;;12.63;11.32;;;8.40;99.90;;;;;;5027075;28;20261;-56
2021/12/18 05:06:39;;;;;;;12.00;10.85;;;8.40;99.90;;;;;;5025826;28;20145;-56
2021/12/18 05:09:05;;;;;;;11.88;10.77;;;8.40;99.90;;;;;;5021769;28;20056;-54
2021/12/18 05:11:37;;;;;;;11.60;10.40;;;8.40;99.90;;;;;;5017094;28;20103;-55
2021/12/18 05:14:04;;;;;;;14.25;12.75;;;8.40;99.90;;;;;;5021808;28;20046;-55
2021/12/18 05:16:31;;;;;;;13.68;12.27;;;8.40;99.90;;;;;;5015880;28;20085;-54
2021/12/18 05:18:58;;;;;;;15.07;12.60;;;8.40;99.90;;;;;;5018518;28;20080;-50
2021/12/18 05:21:25;;;;;;;14.15;11.90;;;8.40;99.90;;;;;;5022309;28;20136;-55
2021/12/18 05:23:51;;;;;;;13.48;11.20;;;8.40;99.90;;;;;;5026669;28;20140;-54
2021/12/18 05:26:19;;;;;;;13.85;12.07;;;8.50;99.90;;;;;;5025206;28;20358;-57
2021/12/18 05:28:45;;;;;;;12.00;10.77;;;8.50;99.90;;;;;;5023845;28;20137;-57
2021/12/18 05:31:16;;;;;;;13.15;11.75;;;8.50;99.90;;;;;;5025667;28;20561;-53
2021/12/18 05:33:46;;;;;;;15.73;13.23;;;8.50;99.90;;;;;;5025741;28;20377;-57
2021/12/18 05:36:33;;;;;;;15.27;13.68;;;8.40;99.90;;;;;;5025363;28;20045;-54
2021/12/18 05:39:04;;;;;;;15.13;13.60;;;8.40;99.90;;;;;;5023975;28;20128;-56
2021/12/18 05:41:31;;;;;;;15.38;13.55;;;8.40;99.90;;;;;;5024006;28;20099;-55
2021/12/18 05:43:58;;;;;;;14.88;13.25;;;8.40;99.90;;;;;;5025482;28;20110;-54
2021/12/18 05:46:25;;;;;;;15.38;13.32;;;8.50;99.90;;;;;;5025797;28;20051;-57
2021/12/18 05:48:52;;;;;;;15.38;12.70;;;8.40;99.90;;;;;;5022541;28;20120;-55
2021/12/18 05:51:21;;;;;;;16.35;13.25;;;8.40;99.90;;;;;;5021801;28;20555;-54
2021/12/18 05:53:48;;;;;;;15.77;13.40;;;8.40;99.90;;;;;;5023345;28;20041;-57
2021/12/18 05:56:15;;;;;;;15.88;13.77;;;8.40;99.90;;;;;;5020437;28;20180;-55
2021/12/18 05:58:43;;;;;;;14.48;12.13;;;8.40;99.90;;;;;;5022077;28;20556;-54
2021/12/18 06:01:12;;;;;;;13.98;12.00;;;8.40;99.90;;;;;;5022828;28;20037;-56
2021/12/18 06:03:39;;;;;;;15.65;13.18;;;8.50;99.90;;;;;;5020384;28;20456;-55
2021/12/18 06:06:06;;;;;;;15.32;13.13;;;8.40;99.90;;;;;;5022095;28;20432;-55
2021/12/18 06:08:34;;;;;;;15.75;13.40;;;8.50;99.90;;;;;;5020696;28;20565;-54
2021/12/18 06:11:07;;;;;;;15.38;12.38;;;8.50;99.90;;;;;;5021243;28;20132;-57
2021/12/18 06:13:35;;;;;;;15.05;13.50;;;8.50;99.90;;;;;;5022855;28;20080;-58
2021/12/18 06:16:05;;;;;;;14.98;13.38;;;8.50;99.90;;;;;;5022193;28;20120;-55
2021/12/18 06:18:34;;;;;;;14.52;12.18;;;8.50;99.90;;;;;;5018576;28;20164;-54
2021/12/18 06:21:02;;;;;;;12.82;11.52;;;8.50;99.90;;;;;;5016759;28;20055;-57
2021/12/18 06:23:29;;;;;;;15.38;13.40;;;8.50;99.90;;;;;;5023423;28;20523;-57
2021/12/18 06:25:56;;;;;;;14.77;12.30;;;8.50;99.90;;;;;;5021793;28;20141;-55
2021/12/18 06:28:23;;;;;;;16.25;13.07;;;8.50;99.90;;;;;;5015587;28;20463;-57
2021/12/18 06:30:49;;;;;;;14.40;12.38;;;8.60;99.90;;;;;;5010178;28;20139;-55
2021/12/18 06:33:17;;;;;;;14.77;13.13;;;8.60;99.90;;;;;;5015762;28;20089;-56
2021/12/18 06:35:43;;;;;;;14.32;11.35;;;8.50;99.90;;;;;;5014674;28;20045;-53
2021/12/18 06:38:10;;;;;;;14.85;11.70;;;8.60;99.90;;;;;;5016350;28;20555;-55
2021/12/18 06:40:37;;;;;;;15.63;12.35;;;8.60;99.90;;;;;;5014814;28;20445;-56
2021/12/18 06:43:04;;;;;;;15.07;11.20;;;8.60;99.90;;;;;;5011828;28;20095;-57
2021/12/18 06:45:30;;;;;;;13.52;11.63;;;8.60;99.90;;;;;;5010649;28;21019;-58
2021/12/18 06:47:57;;;;;;;14.15;11.82;;;8.60;99.90;;;;;;5013448;28;20221;-56
2021/12/18 06:50:24;;;;;;;13.35;11.20;;;8.60;99.90;;;;;;5017576;28;20485;-52
2021/12/18 06:52:51;;;;;;;15.38;12.07;;;8.60;99.90;;;;;;5011213;28;20421;-55
2021/12/18 06:55:18;;;;;;;15.27;12.25;;;8.60;99.90;;;;;;5011951;28;20136;-57
2021/12/18 06:57:44;;;;;;;17.02;12.85;;;8.60;99.90;;;;;;5012814;28;20156;-56
2021/12/18 07:00:12;;;;;;;15.02;12.15;;;8.60;99.90;;;;;;5015110;28;20419;-54
2021/12/18 07:02:39;;;;;;;13.32;11.23;;;8.60;99.90;;;;;;5012760;28;20073;-56
2021/12/18 07:05:06;;;;;;;13.68;10.52;;;8.60;99.90;;;;;;5013963;28;20079;-57
2021/12/18 07:07:33;;;;;;;13.90;11.07;;;8.60;99.90;;;;;;5014394;28;20619;-58
2021/12/18 07:10:00;;;;;;;14.20;10.82;;;8.60;99.90;;;;;;5012119;28;20129;-57
2021/12/18 07:12:26;;;;;;;14.90;11.73;;;8.60;99.90;;;;;;5012983;28;20125;-58
2021/12/18 07:14:53;;;;;;;13.88;11.05;;;8.60;99.90;;;;;;5016088;28;20084;-58
2021/12/18 07:17:20;;;;;;;13.50;11.48;;;8.60;99.90;;;;;;5015990;28;20061;-58
2021/12/18 07:19:46;;;;;;;12.77;10.63;;;8.60;99.90;;;;;;5014560;28;20132;-57
2021/12/18 07:22:13;;;;;;;13.93;10.85;;;8.60;99.90;;;;;;5015576;28;20475;-57
2021/12/18 07:24:40;;;;;;;12.45;10.45;;;8.70;99.90;;;;;;5019861;28;20129;-58
2021/12/18 07:27:07;;;;;;;13.13;11.27;;;8.60;99.90;;;;;;5014882;28;20520;-58
2021/12/18 07:29:33;;;;;;;13.68;10.60;;;8.60;99.90;;;;;;5021082;28;20600;-56
2021/12/18 07:32:00;;;;;;;14.82;12.07;;;8.60;99.90;;;;;;5016925;28;20125;-56
2021/12/18 07:34:47;;;;;;;15.77;12.63;;;8.60;99.90;;;;;;5017324;28;20046;-51
2021/12/18 07:37:13;;;;;;;14.85;12.25;;;8.50;99.90;;;;;;5016325;28;20136;-56
2021/12/18 07:39:40;;;;;;;13.90;12.23;;;8.60;99.90;;;;;;5013659;28;20046;-58
2021/12/18 07:42:07;;;;;;;13.20;11.00;;;8.50;99.90;;;;;;5021297;28;20730;-58
2021/12/18 07:44:34;;;;;;;13.25;11.18;;;8.60;99.90;;;;;;5019969;28;20077;-56
2021/12/18 07:47:01;;;;;;;12.98;9.85;;;8.60;99.90;;;;;;5021641;28;20132;-57
2021/12/18 07:49:27;;;;;;;16.65;11.55;;;8.60;99.90;;;;;;5013310;28;20087;-58
2021/12/18 07:51:59;;;;;;;15.82;11.73;;;8.60;99.90;;;;;;5022059;28;20163;-56
2021/12/18 07:54:26;;;;;;;18.65;14.63;;;8.60;99.90;;;;;;5016397;28;20642;-55
2021/12/18 07:56:53;;;;;;;16.65;13.65;;;8.60;99.90;;;;;;4999751;28;20567;-56
2021/12/18 07:59:19;;;;;;;17.80;13.43;;;8.50;99.90;;;;;;5019962;28;20136;-57
2021/12/18 08:01:46;;;;;;;17.95;14.25;;;8.50;99.90;;;;;;5015938;28;20133;-56
2021/12/18 08:04:13;;;;;;;16.23;13.15;;;8.50;99.90;;;;;;5014335;28;20125;-56
2021/12/18 08:06:40;;;;;;;15.70;12.65;;;8.50;99.90;;;;;;5012532;28;20045;-56
2021/12/18 08:09:10;;;;;;;15.00;13.18;;;8.50;99.90;;;;;;5017600;28;20092;-56
2021/12/18 08:11:37;;;;;;;14.82;11.80;;;8.50;99.90;;;;;;5007136;28;20168;-58
2021/12/18 08:14:03;;;;;;;15.18;12.23;;;8.60;99.90;;;;;;5021258;28;20467;-57
2021/12/18 08:16:30;;;;;;;14.90;11.98;;;8.60;99.90;;;;;;5021429;28;20053;-53
2021/12/18 08:18:57;;;;;;;14.38;11.60;;;8.60;99.90;;;;;;5021935;28;20076;-57
2021/12/18 08:21:24;;;;;;;13.93;11.07;;;8.60;99.90;;;;;;5020585;28;20068;-57
2021/12/18 08:23:50;;;;;;;13.98;10.90;;;8.60;99.90;;;;;;5020156;28;20517;-57
2021/12/18 08:26:17;;;;;;;12.27;10.50;;;8.70;99.90;;;;;;5015006;28;20149;-55
2021/12/18 08:28:44;;;;;;;13.10;10.95;;;8.70;99.90;;;;;;5019597;28;20176;-56
2021/12/18 08:31:11;;;;;;;14.35;11.05;;;8.70;99.90;;;;;;5014512;28;20057;-58
2021/12/18 08:33:37;;;;;;;12.15;10.65;;;8.70;99.90;;;;;;5013262;28;20134;-58
2021/12/18 08:36:04;;;;;;;12.95;10.93;;;8.80;99.90;;;;;;5018363;28;20137;-57
2021/12/18 08:38:31;;;;;;;15.70;12.32;;;8.80;99.90;;;;;;5015763;28;20144;-56
2021/12/18 08:40:58;;;;;;;14.65;12.13;;;8.80;99.90;;;;;;5018517;28;20184;-56
2021/12/18 08:43:25;;;;;;;13.20;11.80;;;8.80;99.90;;;;;;5013013;28;20528;-55
2021/12/18 08:45:51;;;;;;;13.68;11.50;;;8.80;99.90;;;;;;5016485;28;20466;-56
2021/12/18 08:48:18;;;;;;;12.98;11.55;;;8.80;99.90;;;;;;5017226;28;20579;-51
2021/12/18 08:50:45;;;;;;;13.35;10.70;;;8.80;99.90;;;;;;5020495;28;20099;-57
2021/12/18 08:53:12;;;;;;;12.15;10.85;;;8.80;99.90;;;;;;5020529;28;20141;-57
2021/12/18 08:55:39;;;;;;;14.07;11.75;;;8.90;99.90;;;;;;5006549;28;20133;-57
2021/12/18 08:58:05;;;;;;;15.45;12.38;;;8.90;99.90;;;;;;5005287;28;20135;-57
2021/12/18 09:00:33;;;;;;;13.48;11.98;;;8.90;99.90;;;;;;5018465;28;20140;-57
2021/12/18 09:03:00;;;;;;;14.27;12.02;;;8.90;99.90;;;;;;5012462;28;20685;-57
2021/12/18 09:05:28;;;;;;;13.57;12.07;;;8.90;99.90;;;;;;5010164;28;20060;-57
2021/12/18 09:07:56;;;;;;;13.90;12.00;;;8.80;99.90;;;;;;5020492;28;20100;-57
2021/12/18 09:10:23;;;;;;;13.48;11.75;;;8.90;99.90;;;;;;5020963;28;20072;-55
2021/12/18 09:12:50;;;;;;;12.30;10.55;;;8.90;99.90;;;;;;5016065;28;20122;-57
2021/12/18 09:15:17;;;;;;;13.05;11.75;;;8.90;99.90;;;;;;5019964;28;20606;-57
2021/12/18 09:17:44;;;;;;;12.82;11.10;;;8.90;99.90;;;;;;5018174;28;20103;-56
2021/12/18 09:20:11;;;;;;;11.80;10.43;;;8.90;99.90;;;;;;5019636;28;20148;-57
2021/12/18 09:22:38;;;;;;;12.23;10.93;;;8.90;99.90;;;;;;5035472;28;20080;-58
2021/12/18 09:25:06;;;;;;;11.18;10.07;;;9.00;99.90;;;;;;5020004;28;20124;-53
2021/12/18 09:27:33;;;;;;;12.10;10.90;;;9.00;99.90;;;;;;5018830;28;20087;-57
2021/12/18 09:30:01;;;;;;;11.73;10.52;;;8.90;99.90;;;;;;5018407;28;20057;-57
2021/12/18 09:32:29;;;;;;;11.20;10.10;;;8.90;99.90;;;;;;5018579;28;20145;-56
2021/12/18 09:34:56;;;;;;;11.18;10.02;;;9.00;99.90;;;;;;5019732;28;20056;-56
2021/12/18 09:37:23;;;;;;;12.82;11.52;;;9.00;99.90;;;;;;5015708;28;20068;-55
2021/12/18 09:39:50;;;;;;;12.88;11.40;;;9.00;99.90;;;;;;5019046;28;20838;-57
2021/12/18 09:42:17;;;;;;;12.02;10.82;;;9.00;99.90;;;;;;5016968;28;20174;-57
2021/12/18 09:44:43;;;;;;;12.30;10.77;;;9.00;99.90;;;;;;5019913;28;20057;-57
2021/12/18 09:47:10;;;;;;;11.02;9.93;;;9.10;99.90;;;;;;5017958;28;20146;-57
2021/12/18 09:49:37;;;;;;;11.13;9.98;;;9.10;99.90;;;;;;5020060;28;20072;-56
2021/12/18 09:52:04;;;;;;;12.05;10.85;;;9.10;99.90;;;;;;5002270;28;20176;-57
2021/12/18 09:54:31;;;;;;;11.45;10.25;;;9.10;99.90;;;;;;5016227;28;20085;-56
2021/12/18 09:56:58;;;;;;;11.27;10.18;;;9.10;99.90;;;;;;5017874;28;20049;-57
2021/12/18 09:59:25;;;;;;;9.77;8.85;;;9.10;99.90;;;;;;5017744;28;20060;-56
2021/12/18 10:01:52;;;;;;;11.02;9.93;;;9.10;99.90;;;;;;5015213;28;20599;-57
2021/12/18 10:04:30;;;;;;;10.10;9.02;;;9.10;99.90;;;;;;5017850;28;20081;-58
2021/12/18 10:06:59;;;;;;;9.20;8.40;;;9.20;99.90;;;;;;5005846;28;20706;-57
2021/12/18 10:09:26;;;;;;;9.18;8.27;;;9.10;99.90;;;;;;5012556;28;20504;-56
2021/12/18 10:12:01;;;;;;;9.98;9.07;;;9.20;99.90;;;;;;5015787;28;20485;-56
2021/12/18 10:14:34;;;;;;;9.10;8.23;;;9.10;99.90;;;;;;5018935;28;20061;-55
2021/12/18 10:17:00;;;;;;;9.52;8.65;;;9.10;99.90;;;;;;5013387;28;20105;-58
2021/12/18 10:19:36;;;;;;;8.85;8.02;;;9.20;99.90;;;;;;5016724;28;20537;-57
2021/12/18 10:22:05;;;;;;;9.13;8.20;;;9.20;99.90;;;;;;5008920;28;20553;-58
2021/12/18 10:24:33;;;;;;;8.73;7.93;;;9.20;99.90;;;;;;5018715;28;20139;-56
2021/12/18 10:27:01;;;;;;;9.25;8.40;;;9.20;99.90;;;;;;5016573;28;20132;-56
2021/12/18 10:29:35;;;;;;;10.20;9.20;;;9.20;99.90;;;;;;5008404;28;20073;-56
2021/12/18 10:32:06;;;;;;;8.88;8.07;;;9.20;99.90;;;;;;5008121;28;20751;-57
2021/12/18 10:34:33;;;;;;;8.73;7.93;;;9.20;99.90;;;;;;5014961;28;20057;-56
2021/12/18 10:37:09;;;;;;;11.20;9.13;;;9.10;99.90;;;;;;5014459;28;20145;-57
2021/12/18 10:39:38;;;;;;;8.75;7.90;;;9.10;99.90;;;;;;5016189;28;20139;-55
2021/12/18 10:42:24;;;;;;;8.15;7.40;;;9.10;99.90;;;;;;5009227;28;20125;-57
2021/12/18 10:45:12;;;;;;;8.27;7.47;;;9.10;99.90;;;;;;5010657;28;20136;-57
2021/12/18 10:48:03;;;;;;;8.52;7.72;;;9.10;99.90;;;;;;5012228;28;20950;-57
2021/12/18 10:50:38;;;;;;;9.02;7.55;;;9.10;99.90;;;;;;5013571;28;20139;-53
2021/12/18 10:53:10;;;;;;;8.10;7.35;;;9.10;99.90;;;;;;5006735;28;20178;-56
2021/12/18 10:55:47;;;;;;;8.40;7.60;;;9.10;99.90;;;;;;5007870;28;20055;-52
2021/12/18 10:58:34;;;;;;;8.98;8.18;;;9.10;99.90;;;;;;5004367;28;20057;-56
2021/12/18 11:01:04;;;;;;;7.63;6.93;;;9.20;99.90;;;;;;5014344;28;20077;-57
2021/12/18 11:03:50;;;;;;;7.72;7.03;;;9.20;99.90;;;;;;5016623;28;20113;-56
2021/12/18 11:06:21;;;;;;;7.90;7.15;;;9.30;99.90;;;;;;5013567;28;20136;-56
2021/12/18 11:09:00;;;;;;;8.20;7.40;;;9.30;99.90;;;;;;5017845;28;20088;-56
2021/12/18 11:14:12;;;;;;;9.30;8.45;;;9.20;99.90;;;;;;5014926;28;20159;-58
2021/12/18 11:16:39;;;;;;;10.63;9.63;;;9.20;99.90;;;;;;5015999;28;20129;-57
2021/12/18 11:19:11;;;;;;;9.50;8.60;;;9.10;99.90;;;;;;5014447;28;20477;-57
2021/12/18 11:21:40;;;;;;;8.95;8.07;;;9.20;99.90;;;;;;5018192;28;20127;-57
2021/12/18 11:24:08;;;;;;;8.70;7.90;;;9.30;99.90;;;;;;5010989;28;20053;-57
2021/12/18 11:26:41;;;;;;;7.32;6.63;;;9.30;99.90;;;;;;5015982;28;20764;-56
2021/12/18 11:29:21;;;;;;;7.75;7.07;;;9.30;99.90;;;;;;5013402;28;20144;-55
2021/12/18 11:31:48;;;;;;;7.35;6.65;;;9.30;99.90;;;;;;5007092;28;20073;-58
2021/12/18 11:34:15;;;;;;;7.60;6.90;;;9.30;99.90;;;;;;5011073;28;20754;-57
2021/12/18 11:36:43;;;;;;;8.23;7.00;;;9.30;99.90;;;;;;5010170;28;20057;-57
2021/12/18 11:39:11;;;;;;;7.85;7.15;;;9.30;99.90;;;;;;5013552;28;20721;-57
2021/12/18 11:41:38;;;;;;;7.00;6.40;;;9.30;99.90;;;;;;5003497;28;20088;-56
2021/12/18 11:44:28;;;;;;;7.60;6.90;;;9.40;99.90;;;;;;5011896;28;20440;-55
2021/12/18 11:46:57;;;;;;;7.55;6.85;;;9.40;99.90;;;;;;5016139;28;20080;-56
2021/12/18 11:49:26;;;;;;;7.47;6.78;;;9.30;99.90;;;;;;5017899;28;20068;-52
2021/12/18 11:51:58;;;;;;;7.95;7.22;;;9.30;99.90;;;;;;5013976;28;20079;-56
2021/12/18 11:54:45;;;;;;;7.65;6.95;;;9.30;99.90;;;;;;5010080;28;20078;-56
2021/12/18 11:57:12;;;;;;;7.35;6.65;;;9.30;99.90;;;;;;5005087;28;20661;-56
2021/12/18 11:59:41;;;;;;;6.10;5.53;;;9.30;99.90;;;;;;5018180;28;20128;-49
2021/12/18 12:02:09;;;;;;;6.75;6.18;;;9.40;99.90;;;;;;5015869;28;20060;-58
2021/12/18 12:04:59;;;;;;;6.63;6.03;;;9.40;99.90;;;;;;5019239;28;20136;-54
2021/12/18 12:07:27;;;;;;;5.65;5.15;;;9.40;99.90;;;;;;5017150;28;20132;-55
2021/12/18 12:10:12;;;;;;;6.18;5.68;;;9.50;99.90;;;;;;5017209;28;20078;-55
2021/12/18 12:12:54;;;;;;;6.63;6.05;;;9.50;99.90;;;;;;5016664;28;20062;-56
2021/12/18 12:15:24;;;;;;;5.93;5.33;;;9.50;99.90;;;;;;5014839;28;20107;-55
2021/12/18 12:17:56;;;;;;;6.38;5.78;;;9.50;99.90;;;;;;5015440;28;20054;-54
2021/12/18 12:20:43;;;;;;;6.03;5.45;;;9.50;99.90;;;;;;5014473;28;20155;-54
2021/12/18 12:23:10;;;;;;;5.10;4.68;;;9.50;99.90;;;;;;5017007;28;20045;-57
2021/12/18 12:25:45;;;;;;;4.80;4.40;;;9.50;99.90;;;;;;5001938;28;20056;-56
2021/12/18 12:28:17;;;;;;;5.68;5.18;;;9.50;99.90;;;;;;5012031;28;20057;-55
2021/12/18 12:30:48;;;;;;;5.70;5.15;;;9.40;99.90;;;;;;5013066;28;20135;-57
2021/12/18 12:33:34;;;;;;;6.05;5.55;;;9.30;99.90;;;;;;5009198;28;20174;-55
2021/12/18 12:36:08;;;;;;;5.88;5.28;;;9.30;99.90;;;;;;5012574;28;20050;-56
2021/12/18 12:38:59;;;;;;;5.30;4.80;;;9.30;99.90;;;;;;5014169;28;20160;-56
2021/12/18 12:41:36;;;;;;;5.65;4.90;;;9.30;99.90;;;;;;5012007;28;20050;-56
2021/12/18 12:44:26;;;;;;;5.75;5.25;;;9.40;99.90;;;;;;5016636;28;20106;-57
2021/12/18 12:47:15;;;;;;;5.40;4.90;;;9.40;99.90;;;;;;5010918;28;20786;-59
2021/12/18 12:49:51;;;;;;;5.15;4.70;;;9.40;99.90;;;;;;5015105;28;20049;-58
2021/12/18 12:52:19;;;;;;;4.55;4.15;;;9.40;99.90;;;;;;5001766;28;20901;-59
2021/12/18 12:54:57;;;;;;;4.93;4.43;;;9.40;99.90;;;;;;5013428;28;20117;-59
2021/12/18 12:57:25;;;;;;;4.38;3.97;;;9.40;99.90;;;;;;5018869;28;20477;-58
2021/12/18 13:00:15;;;;;;;4.97;4.47;;;9.50;99.90;;;;;;5019343;28;20145;-58
2021/12/18 13:02:58;;;;;;;5.28;4.78;;;9.50;99.90;;;;;;5008094;28;20795;-57
2021/12/18 13:05:26;;;;;;;5.35;4.47;;;9.40;99.90;;;;;;5019899;28;20067;-57
2021/12/18 13:07:55;;;;;;;5.20;4.43;;;9.40;99.90;;;;;;5015973;28;20064;-57
2021/12/18 13:10:27;;;;;;;4.35;3.95;;;9.50;99.90;;;;;;5017812;28;20099;-56
2021/12/18 13:12:57;;;;;;;5.03;3.80;;;9.50;99.90;;;;;;5004258;28;20053;-59
2021/12/18 13:15:24;;;;;;;4.03;3.70;;;9.40;99.90;;;;;;5007027;28;20589;-58
2021/12/18 13:18:08;;;;;;;4.28;3.58;;;9.50;99.90;;;;;;5012875;28;20053;-58
2021/12/18 13:20:41;;;;;;;3.80;3.50;;;9.50;99.90;;;;;;5017244;28;20221;-59
2021/12/18 13:23:08;;;;;;;4.60;4.20;;;9.60;99.90;;;;;;5016856;28;20797;-59
2021/12/18 13:25:51;;;;;;;4.35;3.95;;;9.50;99.90;;;;;;5015008;28;20129;-58
2021/12/18 13:28:18;;;;;;;4.65;4.25;;;9.50;99.90;;;;;;5010784;28;20128;-59
2021/12/18 13:30:47;;;;;;;4.55;4.15;;;9.40;99.90;;;;;;5007117;28;20120;-59
2021/12/18 13:33:14;;;;;;;5.03;4.53;;;9.40;99.90;;;;;;5002775;28;20520;-58
2021/12/18 13:35:41;;;;;;;4.70;4.30;;;9.40;99.90;;;;;;5013831;28;20468;-58
2021/12/18 13:38:09;;;;;;;4.63;4.22;;;9.40;99.90;;;;;;5012837;28;20045;-59
2021/12/18 13:40:47;;;;;;;4.43;4.00;;;9.40;99.90;;;;;;5011042;28;20058;-55
2021/12/18 13:43:14;;;;;;;4.97;4.57;;;9.40;99.90;;;;;;5006803;28;20053;-59
2021/12/18 13:45:57;;;;;;;5.03;4.63;;;9.40;99.90;;;;;;5011825;28;20073;-59